Time;durP1;ratioP1;P1;durP2;ratioP2;P2;SDS_P1;SDS_P2;PMS_P1;PMS_P2;Temp;Humidity;BMP_temperature;BMP_pressure;BME280_temperature;BME280_humidity;BME280_pressure;Samples;Min_cycle;Max_cycle;Signal;HPM_P1;HPM_P2
2021/11/14 00:00:59;;;;;;;47.72;12.68;;;;;;;3.95;100.00;92843.50;2102551;28;20074;-88
2021/11/14 00:02:00;;;;;;;20.92;12.88;;;;;;;3.91;100.00;92845.44;2099325;28;21215;-87
2021/11/14 00:03:02;;;;;;;13.18;10.80;;;;;;;3.94;100.00;92832.19;2094715;28;20115;-88
2021/11/14 00:04:04;;;;;;;27.85;11.98;;;;;;;3.90;100.00;92831.44;2092450;28;20025;-88
2021/11/14 00:05:06;;;;;;;47.38;12.52;;;;;;;3.92;100.00;92831.81;2089956;28;20405;-88
2021/11/14 00:06:10;;;;;;;20.48;11.52;;;;;;;3.92;100.00;92842.41;2096661;28;20504;-90
2021/11/14 00:07:11;;;;;;;48.85;12.20;;;;;;;3.95;100.00;92838.22;2095067;28;20024;-89
2021/11/14 00:08:13;;;;;;;15.48;10.63;;;;;;;4.04;100.00;92833.31;2106719;28;20091;-90
2021/11/14 00:09:15;;;;;;;56.83;12.18;;;;;;;4.00;100.00;92833.31;2098673;28;20118;-89
2021/11/14 00:10:16;;;;;;;33.40;11.20;;;;;;;3.98;100.00;92838.22;2098700;28;20029;-90
2021/11/14 00:11:20;;;;;;;15.15;11.65;;;;;;;3.93;100.00;92828.03;2098493;28;20925;-91
2021/11/14 00:12:21;;;;;;;28.95;11.20;;;;;;;4.03;100.00;92839.72;2098654;28;20025;-91
2021/11/14 00:13:23;;;;;;;14.52;10.73;;;;;;;4.03;100.00;92837.09;2097569;28;20025;-87
2021/11/14 00:14:24;;;;;;;15.05;11.10;;;;;;;4.02;100.00;92835.59;2098617;28;20020;-89
2021/11/14 00:15:25;;;;;;;18.30;10.75;;;;;;;4.01;100.00;92834.06;2098604;28;20031;-85
2021/11/14 00:16:27;;;;;;;19.08;11.55;;;;;;;3.99;100.00;92831.03;2106656;28;20061;-86
2021/11/14 00:17:28;;;;;;;13.70;11.73;;;;;;;4.04;100.00;92830.69;2106879;28;20106;-89
2021/11/14 00:18:29;;;;;;;16.83;10.88;;;;;;;4.01;100.00;92828.78;2106716;28;20488;-86
2021/11/14 00:19:30;;;;;;;19.90;11.27;;;;;;;4.08;100.00;92833.28;2108971;28;20073;-88
2021/11/14 00:20:31;;;;;;;17.58;11.00;;;;;;;4.13;100.00;92835.56;2106695;28;20746;-90
2021/11/14 00:21:35;;;;;;;17.98;11.50;;;;;;;4.04;100.00;92826.16;2095816;28;20018;-88
2021/11/14 00:22:37;;;;;;;21.20;11.35;;;;;;;4.06;100.00;92838.22;2093688;28;20032;-86
2021/11/14 00:23:38;;;;;;;12.98;10.60;;;;;;;4.07;100.00;92832.53;2098551;28;20393;-87
2021/11/14 00:24:39;;;;;;;19.05;10.18;;;;;;;4.06;100.00;92838.22;2098410;28;20024;-88
2021/11/14 00:25:41;;;;;;;12.60;10.70;;;;;;;4.03;100.00;92823.84;2098211;28;20048;-86
2021/11/14 00:26:43;;;;;;;15.98;10.85;;;;;;;4.15;100.00;92830.66;2098389;28;20553;-88
2021/11/14 00:27:46;;;;;;;15.15;10.25;;;;;;;4.16;100.00;92832.16;2106887;28;20561;-86
2021/11/14 00:28:48;;;;;;;17.20;11.18;;;;;;;4.09;100.00;92825.00;2123471;27;20671;-89
2021/11/14 00:29:49;;;;;;;14.88;11.30;;;;;;;4.02;100.00;92830.28;2114922;28;20023;-89
2021/11/14 00:30:51;;;;;;;12.95;10.95;;;;;;;4.13;100.00;92828.38;2098357;28;20077;-87
2021/11/14 00:31:52;;;;;;;16.40;12.10;;;;;;;4.16;100.00;92827.59;2093344;28;20044;-87
2021/11/14 00:32:53;;;;;;;14.25;10.75;;;;;;;4.12;100.00;92828.75;2089850;28;20017;-89
2021/11/14 00:33:54;;;;;;;13.60;11.32;;;;;;;4.13;100.00;92825.75;2089910;28;20024;-87
2021/11/14 00:34:55;;;;;;;14.25;11.23;;;;;;;4.10;100.00;92829.16;2081873;28;20021;-88
2021/11/14 00:35:56;;;;;;;14.45;11.07;;;;;;;4.14;100.00;92826.50;2081886;28;20129;-88
2021/11/14 00:36:57;;;;;;;13.70;10.80;;;;;;;4.10;100.00;92831.03;2089788;28;20020;-87
2021/11/14 00:37:58;;;;;;;15.02;10.95;;;;;;;4.06;100.00;92820.47;2081593;28;20386;-88
2021/11/14 00:38:59;;;;;;;13.25;10.23;;;;;;;4.08;100.00;92833.28;2093715;28;20017;-88
2021/11/14 00:40:03;;;;;;;15.32;10.77;;;;;;;4.09;100.00;92829.53;2104574;28;20107;-88
2021/11/14 00:41:06;;;;;;;12.73;11.02;;;;;;;4.00;100.00;92828.03;2101385;28;20111;-89
2021/11/14 00:42:07;;;;;;;15.40;9.95;;;;;;;4.01;100.00;92828.78;2114837;28;20403;-88
2021/11/14 00:43:08;;;;;;;12.02;10.48;;;;;;;4.06;100.00;92825.00;2104977;28;20016;-86
2021/11/14 00:44:09;;;;;;;12.25;10.38;;;;;;;4.05;100.00;92824.25;2106401;28;20496;-87
2021/11/14 00:45:10;;;;;;;12.77;10.50;;;;;;;3.99;100.00;92825.75;2109918;28;20019;-88
2021/11/14 00:46:12;;;;;;;13.10;10.52;;;;;;;3.99;100.00;92826.50;2115098;28;20027;-89
2021/11/14 00:47:12;;;;;;;12.50;10.05;;;;;;;4.13;100.00;92822.34;2101786;28;20083;-89
2021/11/14 00:48:15;;;;;;;11.63;10.02;;;;;;;4.12;100.00;92826.09;2105779;28;20028;-87
2021/11/14 00:49:16;;;;;;;10.98;9.55;;;;;;;4.08;100.00;92825.34;2114415;28;20114;-86
2021/11/14 00:50:17;;;;;;;10.95;9.63;;;;;;;4.09;100.00;92827.66;2106676;28;20385;-91
2021/11/14 00:51:25;;;;;;;12.38;9.38;;;;;;;4.07;100.00;92827.25;2102123;28;20032;-87
2021/11/14 00:52:26;;;;;;;10.18;8.90;;;;;;;4.10;100.00;92823.84;2098982;28;20032;-87
2021/11/14 00:53:27;;;;;;;9.57;8.57;;;;;;;4.15;100.00;92831.41;2106262;28;20020;-89
2021/11/14 00:54:28;;;;;;;10.60;9.20;;;;;;;4.23;100.00;92829.50;2106531;28;20055;-91
2021/11/14 00:55:31;;;;;;;10.35;8.82;;;;;;;4.39;100.00;92829.84;2106382;28;20028;-89
2021/11/14 00:56:33;;;;;;;10.45;8.98;;;;;;;4.32;100.00;92826.44;2110899;27;20089;-90
2021/11/14 00:57:35;;;;;;;9.60;8.60;;;;;;;4.34;100.00;92829.44;2102270;28;20115;-90
2021/11/14 00:58:36;;;;;;;11.77;9.65;;;;;;;4.30;100.00;92829.47;2097919;28;20139;-88
2021/11/14 00:59:37;;;;;;;11.20;8.75;;;;;;;4.20;100.00;92828.34;2123260;27;20030;-88
2021/11/14 01:00:38;;;;;;;9.93;8.63;;;;;;;4.31;100.00;92844.22;2107542;28;20028;-89
2021/11/14 01:01:39;;;;;;;10.98;9.50;;;;;;;4.33;100.00;92838.53;2109351;28;20020;-90
2021/11/14 01:02:41;;;;;;;10.60;8.93;;;;;;;4.26;100.00;92839.31;2105127;28;20128;-90
2021/11/14 01:03:43;;;;;;;11.00;9.15;;;;;;;4.19;100.00;92842.72;2098371;28;20086;-86
2021/11/14 01:04:44;;;;;;;9.70;8.70;;;;;;;4.15;100.00;92835.94;2097862;28;20032;-85
2021/11/14 01:05:45;;;;;;;9.40;8.38;;;;;;;4.04;100.00;92830.69;2089748;28;20498;-90
2021/11/14 01:06:46;;;;;;;9.07;8.05;;;;;;;4.06;100.00;92836.34;2105758;27;20023;-88
2021/11/14 01:07:47;;;;;;;10.30;8.57;;;;;;;4.08;100.00;92836.69;2114797;28;20069;-88
2021/11/14 01:08:48;;;;;;;10.43;8.43;;;;;;;4.04;100.00;92839.38;2097762;28;20044;-90
2021/11/14 01:09:49;;;;;;;10.18;8.15;;;;;;;4.09;100.00;92845.41;2098061;28;20024;-88
2021/11/14 01:10:52;;;;;;;10.32;8.27;;;;;;;4.16;100.00;92843.47;2106574;28;20059;-88
2021/11/14 01:11:53;;;;;;;9.32;7.95;;;;;;;4.08;100.00;92838.59;2106204;28;20032;-87
2021/11/14 01:12:54;;;;;;;8.70;7.82;;;;;;;4.10;100.00;92844.25;2088927;28;20025;-86
2021/11/14 01:13:55;;;;;;;11.23;8.70;;;;;;;4.06;100.00;92835.56;2107041;28;20032;-88
2021/11/14 01:14:56;;;;;;;10.73;8.48;;;;;;;4.08;100.00;92836.69;2114144;28;20020;-88
2021/11/14 01:15:58;;;;;;;9.02;8.13;;;;;;;4.08;100.00;92838.59;2101173;28;20074;-89
2021/11/14 01:16:59;;;;;;;9.13;8.18;;;;;;;4.11;100.00;92835.19;2099899;28;20366;-89
2021/11/14 01:18:00;;;;;;;11.25;8.32;;;;;;;4.03;100.00;92837.84;2097352;28;20023;-86
2021/11/14 01:19:01;;;;;;;9.18;7.97;;;;;;;4.04;100.00;92834.06;2097758;28;20069;-88
2021/11/14 01:20:03;;;;;;;9.13;7.93;;;;;;;4.03;100.00;92840.47;2093095;28;20027;-88
2021/11/14 01:21:09;;;;;;;9.60;8.15;;;;;;;4.04;100.00;92834.06;2103827;28;20027;-89
2021/11/14 01:22:10;;;;;;;9.95;8.40;;;;;;;4.05;100.00;92834.81;2117745;27;20473;-88
2021/11/14 01:23:12;;;;;;;8.75;7.82;;;;;;;4.09;100.00;92832.19;2117672;27;20115;-88
2021/11/14 01:24:16;;;;;;;9.23;8.23;;;;;;;4.11;100.00;92835.19;2109511;28;20435;-87
2021/11/14 01:25:18;;;;;;;8.75;7.85;;;;;;;4.12;100.00;92834.03;2097733;28;20025;-87
2021/11/14 01:26:19;;;;;;;9.05;8.15;;;;;;;4.12;100.00;92834.03;2098404;28;20025;-87
2021/11/14 01:27:21;;;;;;;8.48;7.45;;;;;;;4.13;100.00;92835.56;2110590;28;20019;-89
2021/11/14 01:28:23;;;;;;;9.73;8.20;;;;;;;4.16;100.00;92835.53;2113928;28;20019;-90
2021/11/14 01:29:24;;;;;;;10.82;8.68;;;;;;;4.19;100.00;92839.34;2097732;28;20722;-89
2021/11/14 01:30:28;;;;;;;8.48;7.57;;;;;;;4.10;100.00;92831.78;2097722;28;20032;-88
2021/11/14 01:31:29;;;;;;;8.25;7.43;;;;;;;4.12;100.00;92831.41;2106178;28;20054;-87
2021/11/14 01:32:30;;;;;;;8.90;7.93;;;;;;;4.14;100.00;92829.13;2111896;27;20044;-88
2021/11/14 01:33:32;;;;;;;8.18;7.38;;;;;;;4.18;100.00;92835.94;2114715;27;20020;-89
2021/11/14 01:34:33;;;;;;;8.68;7.07;;;;;;;4.13;100.00;92835.56;2118828;27;20019;-88
2021/11/14 01:35:36;;;;;;;8.57;7.55;;;;;;;4.12;100.00;92834.78;2114327;28;20062;-88
2021/11/14 01:36:37;;;;;;;8.50;7.53;;;;;;;4.13;100.00;92831.03;2091384;28;20107;-87
2021/11/14 01:37:40;;;;;;;10.63;7.30;;;;;;;4.15;100.00;92833.28;2097746;28;20035;-87
2021/11/14 01:38:41;;;;;;;9.65;7.68;;;;;;;4.18;100.00;92829.88;2098255;28;20020;-88
2021/11/14 01:39:42;;;;;;;8.43;7.50;;;;;;;4.19;100.00;92832.16;2097659;28;20090;-90
2021/11/14 01:40:53;;;;;;;8.10;7.30;;;;;;;4.22;100.00;92831.38;2097716;28;20051;-86
2021/11/14 01:41:54;;;;;;;9.23;8.32;;;;;;;4.13;100.00;92830.28;2083896;28;20383;-86
2021/11/14 01:42:55;;;;;;;8.40;7.25;;;;;;;4.18;100.00;92835.19;2091696;28;20620;-88
2021/11/14 01:43:57;;;;;;;7.70;6.95;;;;;;;4.16;100.00;92832.91;2115762;27;20118;-87
2021/11/14 01:44:58;;;;;;;8.05;6.90;;;;;;;4.20;100.00;92835.53;2100751;28;20081;-86
2021/11/14 01:45:59;;;;;;;8.00;7.05;;;;;;;4.15;100.00;92828.00;2097767;28;20031;-89
2021/11/14 01:47:00;;;;;;;9.45;7.82;;;;;;;4.09;100.00;92827.66;2097695;28;20469;-90
2021/11/14 01:48:03;;;;;;;7.95;7.15;;;;;;;4.17;100.00;92837.06;2099631;28;20054;-87
2021/11/14 01:49:04;;;;;;;8.35;7.45;;;;;;;4.12;100.00;92826.84;2114302;28;20043;-89
2021/11/14 01:50:09;;;;;;;8.77;7.82;;;;;;;4.07;100.00;92829.91;2097767;28;20028;-90
2021/11/14 01:51:10;;;;;;;10.15;8.15;;;;;;;4.04;100.00;92830.69;2098792;28;20025;-90
2021/11/14 01:52:22;;;;;;;8.38;7.57;;;;;;;4.12;100.00;92828.75;2106148;28;20377;-88
2021/11/14 01:53:25;;;;;;;8.23;7.43;;;;;;;4.08;100.00;92828.00;2097474;28;20143;-89
2021/11/14 01:54:26;;;;;;;8.73;7.82;;;;;;;4.09;100.00;92827.66;2089508;28;20036;-86
2021/11/14 01:55:31;;;;;;;8.60;7.10;;;;;;;4.09;100.00;92826.91;2089487;28;20035;-86
2021/11/14 01:56:32;;;;;;;9.45;7.93;;;;;;;4.06;100.00;92823.09;2089692;28;20436;-88
2021/11/14 01:57:33;;;;;;;9.85;7.93;;;;;;;4.07;100.00;92829.16;2081059;28;20057;-88
2021/11/14 01:58:34;;;;;;;8.27;7.47;;;;;;;4.09;100.00;92829.53;2097620;28;20574;-88
2021/11/14 01:59:37;;;;;;;9.43;7.88;;;;;;;4.09;100.00;92825.00;2097407;28;20409;-88
2021/11/14 02:00:55;;;;;;;8.80;7.28;;;;;;;4.07;100.00;92821.97;2097732;28;20039;-86
2021/11/14 02:01:56;;;;;;;8.95;7.97;;;;;;;4.18;100.00;92827.25;2100727;28;20028;-87
2021/11/14 02:02:59;;;;;;;8.38;7.32;;;;;;;4.16;100.00;92829.50;2105907;28;20028;-87
2021/11/14 02:04:03;;;;;;;9.55;8.25;;;;;;;4.15;100.00;92828.75;2114659;28;20110;-87
2021/11/14 02:05:10;;;;;;;8.90;7.75;;;;;;;4.29;100.00;92826.06;2114940;28;20027;-88
2021/11/14 02:06:11;;;;;;;8.30;7.32;;;;;;;4.30;100.00;92829.47;2114335;28;20110;-86
2021/11/14 02:08:39;;;;;;;;;;;;;;;4.24;100.00;92823.06;2148618;27;20106;-86
2021/11/14 02:09:41;;;;;;;7.47;6.65;;;;;;;4.21;100.00;92826.47;2138804;27;19958;-88
2021/11/14 02:10:44;;;;;;;7.78;6.97;;;;;;;4.13;100.00;92830.28;2130334;27;20022;-87
2021/11/14 02:11:45;;;;;;;8.48;7.63;;;;;;;4.15;100.00;92828.75;2122080;27;20054;-88
2021/11/14 02:12:46;;;;;;;8.70;7.72;;;;;;;4.11;100.00;92835.19;2111216;28;20043;-88
2021/11/14 02:13:50;;;;;;;8.73;7.45;;;;;;;4.11;100.00;92833.28;2104699;28;20024;-87
2021/11/14 02:14:51;;;;;;;8.95;7.03;;;;;;;4.15;100.00;92833.28;2097045;28;20107;-86
2021/11/14 02:15:53;;;;;;;7.82;7.03;;;;;;;4.13;100.00;92835.56;2113263;28;20023;-89
2021/11/14 02:16:54;;;;;;;8.93;8.02;;;;;;;4.07;100.00;92827.25;2113384;28;20890;-89
2021/11/14 02:17:55;;;;;;;8.85;7.47;;;;;;;4.05;100.00;92829.53;2113258;28;20374;-88
2021/11/14 02:18:57;;;;;;;8.00;7.20;;;;;;;4.04;100.00;92825.38;2113333;28;20024;-86
2021/11/14 02:19:58;;;;;;;8.60;7.70;;;;;;;4.12;100.00;92834.03;2115794;27;20083;-88
2021/11/14 02:21:00;;;;;;;9.40;8.40;;;;;;;4.06;100.00;92825.00;2120129;28;20028;-89
2021/11/14 02:22:01;;;;;;;8.80;7.88;;;;;;;4.11;100.00;92825.34;2097587;28;20024;-87
2021/11/14 02:23:05;;;;;;;10.52;8.45;;;;;;;4.09;100.00;92830.28;2104868;28;20540;-87
2021/11/14 02:24:07;;;;;;;11.93;8.38;;;;;;;4.08;100.00;92828.00;2115993;27;20396;-88
2021/11/14 02:25:11;;;;;;;11.65;8.18;;;;;;;4.07;100.00;92827.25;2108760;28;20032;-87
2021/11/14 02:26:12;;;;;;;8.57;7.53;;;;;;;4.11;100.00;92828.00;2105456;28;20028;-87
2021/11/14 02:27:13;;;;;;;8.90;8.00;;;;;;;4.09;100.00;92835.56;2113052;27;20023;-87
2021/11/14 02:28:17;;;;;;;8.75;7.85;;;;;;;4.10;100.00;92831.03;2121673;27;20020;-90
2021/11/14 02:29:18;;;;;;;8.30;7.40;;;;;;;4.12;100.00;92828.75;2122011;27;20020;-91
2021/11/14 02:30:21;;;;;;;9.13;8.23;;;;;;;4.08;100.00;92825.34;2121444;27;20495;-90
2021/11/14 02:31:25;;;;;;;12.18;7.82;;;;;;;4.05;100.00;92821.59;2130340;27;20113;-85
2021/11/14 02:32:26;;;;;;;12.23;7.45;;;;;;;4.04;100.00;92839.38;2121404;28;20020;-90
2021/11/14 02:33:28;;;;;;;11.57;7.75;;;;;;;4.08;100.00;92831.41;2113061;27;20024;-87
2021/11/14 02:34:29;;;;;;;25.70;8.90;;;;;;;4.02;100.00;92831.03;2113274;28;20020;-87
2021/11/14 02:35:32;;;;;;;17.42;8.43;;;;;;;4.11;100.00;92829.91;2104719;28;20389;-85
2021/11/14 02:36:33;;;;;;;9.95;7.95;;;;;;;4.11;100.00;92837.84;2105091;28;20020;-88
2021/11/14 02:37:35;;;;;;;46.90;8.88;;;;;;;4.01;100.00;92828.78;2112893;27;20019;-86
2021/11/14 02:38:37;;;;;;;20.88;8.27;;;;;;;4.13;100.00;92830.28;2113280;28;20034;-89
2021/11/14 02:39:38;;;;;;;38.03;9.10;;;;;;;4.08;100.00;92830.66;2097598;28;20148;-88
2021/11/14 02:40:39;;;;;;;11.35;8.05;;;;;;;4.11;100.00;92825.34;2104818;28;20024;-88
2021/11/14 02:41:41;;;;;;;17.75;8.00;;;;;;;4.06;100.00;92823.09;2113121;28;20020;-85
2021/11/14 02:42:46;;;;;;;19.75;8.23;;;;;;;4.10;100.00;92826.50;2105182;28;20131;-89
2021/11/14 02:43:48;;;;;;;16.02;7.95;;;;;;;4.09;100.00;92832.94;2096828;28;20079;-87
2021/11/14 02:44:49;;;;;;;27.25;8.20;;;;;;;4.08;100.00;92825.34;2104859;28;20097;-86
2021/11/14 02:45:51;;;;;;;42.30;9.40;;;;;;;4.02;100.00;92825.00;2104511;28;20028;-87
2021/11/14 02:46:52;;;;;;;10.07;8.35;;;;;;;4.07;100.00;92819.31;2104540;28;20035;-90
2021/11/14 02:47:54;;;;;;;11.05;8.68;;;;;;;4.10;100.00;92820.47;2097096;27;20079;-88
2021/11/14 02:48:55;;;;;;;17.38;8.82;;;;;;;4.10;100.00;92833.69;2121360;27;20037;-87
2021/11/14 02:49:56;;;;;;;17.23;8.20;;;;;;;4.03;100.00;92827.25;2121515;27;20023;-90
2021/11/14 02:50:59;;;;;;;15.57;9.07;;;;;;;4.03;100.00;92821.97;2112798;28;20464;-88
2021/11/14 02:52:00;;;;;;;17.73;9.45;;;;;;;4.00;100.00;92822.75;2104910;28;20048;-89
2021/11/14 02:53:02;;;;;;;10.25;8.20;;;;;;;4.04;100.00;92831.44;2112914;27;20020;-89
2021/11/14 02:54:04;;;;;;;12.57;8.45;;;;;;;4.03;100.00;92821.97;2113183;28;20020;-86
2021/11/14 02:55:08;;;;;;;9.48;8.40;;;;;;;4.03;100.00;92837.84;2105175;28;20030;-86
2021/11/14 02:56:10;;;;;;;8.63;7.75;;;;;;;4.03;100.00;92829.91;2105095;28;20024;-87
2021/11/14 02:57:10;;;;;;;19.98;8.85;;;;;;;4.04;100.00;92836.72;2104781;28;20028;-90
2021/11/14 02:58:12;;;;;;;12.75;8.63;;;;;;;4.06;100.00;92825.00;2104521;28;20107;-89
2021/11/14 02:59:13;;;;;;;18.17;9.13;;;;;;;4.00;100.00;92830.69;2104604;28;20020;-88
2021/11/14 03:00:20;;;;;;;12.10;8.05;;;;;;;4.04;100.00;92831.44;2108359;28;20488;-89
2021/11/14 03:01:32;;;;;;;13.13;9.52;;;;;;;4.08;100.00;92826.09;2105418;28;20055;-89
2021/11/14 03:02:33;;;;;;;22.83;10.00;;;;;;;4.13;100.00;92831.03;2114516;28;20086;-89
2021/11/14 03:03:35;;;;;;;11.13;8.20;;;;;;;4.13;100.00;92822.34;2112813;28;20373;-87
2021/11/14 03:04:37;;;;;;;11.30;8.95;;;;;;;4.08;100.00;92830.66;2118012;28;20038;-86
2021/11/14 03:05:39;;;;;;;10.27;9.15;;;;;;;4.06;100.00;92832.94;2111367;28;20487;-89
2021/11/14 03:06:41;;;;;;;9.82;8.82;;;;;;;4.09;100.00;92829.53;2105768;28;20056;-89
2021/11/14 03:07:44;;;;;;;8.57;7.68;;;;;;;4.10;100.00;92828.41;2111591;28;20016;-86
2021/11/14 03:08:45;;;;;;;9.68;8.65;;;;;;;4.07;100.00;92826.50;2097024;28;20021;-87
2021/11/14 03:09:46;;;;;;;11.32;8.77;;;;;;;4.05;100.00;92837.47;2104342;28;20020;-88
2021/11/14 03:10:47;;;;;;;10.27;8.20;;;;;;;4.01;100.00;92834.81;2104461;28;20028;-88
2021/11/14 03:11:50;;;;;;;16.85;8.63;;;;;;;4.01;100.00;92837.47;2104220;28;20051;-85
2021/11/14 03:13:04;;;;;;;10.40;8.82;;;;;;;4.00;100.00;92833.31;2097928;28;20482;-89
2021/11/14 03:14:06;;;;;;;9.57;8.00;;;;;;;4.10;100.00;92831.78;2110935;28;20564;-86
2021/11/14 03:15:08;;;;;;;10.30;8.43;;;;;;;4.01;100.00;92832.19;2096031;28;20051;-87
2021/11/14 03:16:12;;;;;;;10.82;9.10;;;;;;;4.12;100.00;92834.03;2104431;28;20519;-89
2021/11/14 03:17:13;;;;;;;9.77;8.50;;;;;;;4.12;100.00;92828.75;2104519;28;20020;-89
2021/11/14 03:18:14;;;;;;;10.38;8.32;;;;;;;4.16;100.00;92834.78;2102886;28;20020;-86
2021/11/14 03:19:15;;;;;;;11.90;7.90;;;;;;;4.09;100.00;92835.56;2099625;28;20029;-88
2021/11/14 03:20:16;;;;;;;8.88;7.88;;;;;;;4.12;100.00;92832.16;2093843;28;20445;-87
2021/11/14 03:21:18;;;;;;;10.15;8.43;;;;;;;4.05;100.00;92840.13;2111364;28;20020;-87
2021/11/14 03:22:19;;;;;;;7.95;7.15;;;;;;;4.09;100.00;92840.88;2115759;27;20023;-87
2021/11/14 03:23:22;;;;;;;9.07;8.13;;;;;;;4.12;100.00;92834.03;2110904;28;20024;-87
2021/11/14 03:24:23;;;;;;;8.23;7.28;;;;;;;4.13;100.00;92838.22;2111039;28;20024;-89
2021/11/14 03:25:28;;;;;;;7.93;7.03;;;;;;;4.08;100.00;92838.59;2100024;28;20016;-89
2021/11/14 03:26:29;;;;;;;9.60;7.78;;;;;;;4.10;100.00;92831.78;2102554;28;20103;-87
2021/11/14 03:27:30;;;;;;;9.95;8.23;;;;;;;4.05;100.00;92832.19;2104263;28;20024;-86
2021/11/14 03:28:31;;;;;;;10.93;8.52;;;;;;;3.98;100.00;92838.22;2100995;28;20498;-88
2021/11/14 03:29:32;;;;;;;8.32;7.53;;;;;;;4.02;100.00;92833.69;2104890;28;20504;-86
2021/11/14 03:30:34;;;;;;;8.52;7.53;;;;;;;4.04;100.00;92828.03;2105520;28;20028;-87
2021/11/14 03:31:36;;;;;;;10.25;7.97;;;;;;;4.07;100.00;92834.44;2105133;28;20393;-88
2021/11/14 03:32:38;;;;;;;7.85;7.05;;;;;;;4.07;100.00;92832.53;2098700;28;20048;-86
2021/11/14 03:33:39;;;;;;;8.43;7.38;;;;;;;4.13;100.00;92832.94;2107451;28;20107;-89
2021/11/14 03:34:41;;;;;;;10.05;7.90;;;;;;;4.11;100.00;92832.53;2115591;27;20341;-88
2021/11/14 03:35:54;;;;;;;9.30;8.10;;;;;;;4.21;100.00;92831.75;2107101;28;20031;-86
2021/11/14 03:36:55;;;;;;;8.20;7.22;;;;;;;4.12;100.00;92828.75;2101590;28;20024;-87
2021/11/14 03:37:56;;;;;;;9.43;8.05;;;;;;;4.01;100.00;92836.72;2094156;28;20493;-88
2021/11/14 03:39:00;;;;;;;9.00;7.50;;;;;;;4.08;100.00;92830.66;2105947;28;20030;-85
2021/11/14 03:40:05;;;;;;;8.85;7.63;;;;;;;4.01;100.00;92832.19;2100744;28;20029;-86
2021/11/14 03:41:09;;;;;;;9.43;7.75;;;;;;;4.07;100.00;92834.44;2113434;28;20496;-86
2021/11/14 03:42:10;;;;;;;9.40;7.97;;;;;;;4.07;100.00;92835.19;2101763;28;20058;-88
2021/11/14 03:43:12;;;;;;;8.05;7.25;;;;;;;4.07;100.00;92837.84;2113370;28;20400;-87
2021/11/14 03:44:13;;;;;;;10.27;7.43;;;;;;;4.08;100.00;92835.94;2111895;28;20031;-88
2021/11/14 03:45:15;;;;;;;9.02;7.70;;;;;;;4.10;100.00;92834.44;2102273;28;20034;-88
2021/11/14 03:46:17;;;;;;;7.85;7.03;;;;;;;4.09;100.00;92832.19;2107145;28;20031;-86
2021/11/14 03:47:18;;;;;;;9.00;8.07;;;;;;;4.06;100.00;92832.94;2106860;28;20098;-87
2021/11/14 03:48:19;;;;;;;9.75;7.97;;;;;;;3.99;100.00;92838.97;2102477;28;20428;-89
2021/11/14 03:49:20;;;;;;;8.93;8.02;;;;;;;4.06;100.00;92838.22;2115209;27;20024;-86
2021/11/14 03:50:21;;;;;;;9.23;8.02;;;;;;;4.09;100.00;92843.50;2115246;28;20019;-86
2021/11/14 03:51:23;;;;;;;8.95;7.93;;;;;;;4.14;100.00;92837.06;2107003;28;20023;-89
2021/11/14 03:52:24;;;;;;;9.02;7.43;;;;;;;4.23;100.00;92838.19;2098822;28;20098;-89
2021/11/14 03:53:25;;;;;;;9.23;8.25;;;;;;;4.22;100.00;92833.28;2098589;28;20671;-86
2021/11/14 03:54:26;;;;;;;8.23;7.28;;;;;;;4.19;100.00;92832.16;2106897;28;20097;-87
2021/11/14 03:55:28;;;;;;;11.80;7.97;;;;;;;4.09;100.00;92832.94;2106785;28;20044;-86
2021/11/14 03:56:32;;;;;;;8.40;7.53;;;;;;;4.09;100.00;92838.22;2098608;28;20021;-88
2021/11/14 03:57:33;;;;;;;9.38;8.38;;;;;;;4.12;100.00;92840.09;2100911;28;20580;-85
2021/11/14 03:58:35;;;;;;;9.02;7.80;;;;;;;4.12;100.00;92834.78;2102787;28;20076;-89
2021/11/14 03:59:36;;;;;;;9.90;8.10;;;;;;;4.15;100.00;92841.97;2108611;28;20074;-87
2021/11/14 04:00:42;;;;;;;7.95;6.95;;;;;;;4.04;100.00;92839.38;2120420;27;20051;-87
2021/11/14 04:01:43;;;;;;;8.65;7.72;;;;;;;3.99;100.00;92836.34;2108068;28;20511;-88
2021/11/14 04:02:44;;;;;;;9.25;8.23;;;;;;;4.01;100.00;92834.06;2106035;28;20051;-88
2021/11/14 04:03:47;;;;;;;8.68;7.72;;;;;;;4.04;100.00;92838.63;2106692;28;20019;-89
2021/11/14 04:04:48;;;;;;;9.13;8.02;;;;;;;4.08;100.00;92836.69;2107431;27;20035;-87
2021/11/14 04:05:50;;;;;;;8.80;6.95;;;;;;;4.13;100.00;92838.22;2119142;27;20509;-86
2021/11/14 04:06:51;;;;;;;7.85;7.03;;;;;;;4.12;100.00;92840.09;2106857;28;20024;-86
2021/11/14 04:07:52;;;;;;;8.48;7.57;;;;;;;4.17;100.00;92841.59;2114688;28;20027;-86
2021/11/14 04:08:53;;;;;;;9.85;7.55;;;;;;;4.16;100.00;92842.72;2106744;28;20025;-88
2021/11/14 04:09:54;;;;;;;8.32;7.38;;;;;;;4.15;100.00;92838.59;2106919;28;20048;-86
2021/11/14 04:10:59;;;;;;;8.55;7.13;;;;;;;4.10;100.00;92842.38;2115110;28;20034;-86
2021/11/14 04:12:03;;;;;;;9.70;8.15;;;;;;;4.15;100.00;92844.63;2100749;28;20595;-86
2021/11/14 04:13:05;;;;;;;7.97;7.18;;;;;;;4.15;100.00;92838.59;2085688;28;20025;-86
2021/11/14 04:14:06;;;;;;;8.10;7.30;;;;;;;4.15;100.00;92846.50;2098387;28;20028;-89
2021/11/14 04:15:09;;;;;;;8.85;7.43;;;;;;;4.13;100.00;92835.56;2100763;28;20055;-86
2021/11/14 04:16:10;;;;;;;8.73;7.55;;;;;;;4.11;100.00;92838.59;2112877;27;20027;-88
2021/11/14 04:17:11;;;;;;;8.18;7.38;;;;;;;4.11;100.00;92841.22;2117939;27;20098;-88
2021/11/14 04:18:12;;;;;;;9.70;8.70;;;;;;;4.11;100.00;92840.47;2118192;27;20016;-85
2021/11/14 04:19:13;;;;;;;9.23;7.90;;;;;;;4.15;100.00;92838.59;2109959;28;20019;-86
2021/11/14 04:20:15;;;;;;;9.27;8.38;;;;;;;4.13;100.00;92840.88;2094646;28;20021;-85
2021/11/14 04:21:16;;;;;;;7.95;7.22;;;;;;;4.15;100.00;92838.59;2093627;28;20032;-87
2021/11/14 04:22:17;;;;;;;8.80;7.90;;;;;;;4.17;100.00;92842.38;2111241;28;20032;-87
2021/11/14 04:23:18;;;;;;;8.52;7.72;;;;;;;4.13;100.00;92844.25;2102093;28;20036;-88
2021/11/14 04:24:19;;;;;;;10.68;7.85;;;;;;;4.15;100.00;92846.50;2110842;28;20162;-90
2021/11/14 04:25:21;;;;;;;7.97;7.20;;;;;;;4.17;100.00;92838.94;2120047;27;20019;-89
2021/11/14 04:26:23;;;;;;;9.10;8.10;;;;;;;4.19;100.00;92852.56;2110366;28;20521;-87
2021/11/14 04:27:25;;;;;;;9.45;8.27;;;;;;;4.18;100.00;92853.69;2094736;28;20028;-89
2021/11/14 04:28:26;;;;;;;10.55;9.20;;;;;;;4.19;100.00;92844.63;2101613;28;20028;-90
2021/11/14 04:29:27;;;;;;;10.15;8.93;;;;;;;4.19;100.00;92847.25;2100447;28;20069;-87
2021/11/14 04:30:28;;;;;;;10.45;9.38;;;;;;;4.19;100.00;92855.19;2100931;28;20024;-88
2021/11/14 04:31:29;;;;;;;9.32;8.35;;;;;;;4.18;100.00;92853.69;2102708;28;20025;-89
2021/11/14 04:32:30;;;;;;;11.00;9.35;;;;;;;4.11;100.00;92848.41;2108842;28;20123;-91
2021/11/14 04:33:32;;;;;;;9.20;8.18;;;;;;;4.12;100.00;92852.56;2110062;28;20057;-86
2021/11/14 04:34:33;;;;;;;9.95;7.63;;;;;;;4.15;100.00;92851.81;2100302;28;20110;-89
2021/11/14 04:35:36;;;;;;;10.82;9.68;;;;;;;4.16;100.00;92850.66;2104522;28;20034;-90
2021/11/14 04:36:36;;;;;;;11.82;9.00;;;;;;;4.20;100.00;92854.06;2108244;28;20454;-87
2021/11/14 04:37:38;;;;;;;9.10;8.13;;;;;;;4.20;100.00;92854.06;2104570;28;20057;-91
2021/11/14 04:38:39;;;;;;;9.65;8.65;;;;;;;4.15;100.00;92852.56;2106527;28;20023;-86
2021/11/14 04:39:40;;;;;;;11.35;8.50;;;;;;;4.15;100.00;92860.50;2113800;28;20470;-87
2021/11/14 04:40:43;;;;;;;8.98;8.18;;;;;;;4.20;100.00;92856.69;2106263;28;20032;-85
2021/11/14 04:41:44;;;;;;;9.82;8.13;;;;;;;4.19;100.00;92848.00;2098560;28;20113;-90
2021/11/14 04:42:46;;;;;;;8.95;7.90;;;;;;;4.16;100.00;92854.06;2104750;28;20141;-88
2021/11/14 04:43:47;;;;;;;8.40;7.57;;;;;;;4.13;100.00;92856.72;2114723;28;20579;-87
2021/11/14 04:44:48;;;;;;;8.20;7.40;;;;;;;4.19;100.00;92845.38;2098098;28;20070;-86
2021/11/14 04:45:50;;;;;;;8.88;7.97;;;;;;;4.22;100.00;92849.91;2089686;28;20025;-87
2021/11/14 04:46:52;;;;;;;8.68;7.78;;;;;;;4.19;100.00;92850.66;2105826;28;20051;-89
2021/11/14 04:47:53;;;;;;;10.30;9.30;;;;;;;4.19;100.00;92850.66;2094312;28;20050;-87
2021/11/14 04:48:54;;;;;;;11.25;9.85;;;;;;;4.16;100.00;92855.94;2105553;28;20032;-86
2021/11/14 04:49:55;;;;;;;10.32;9.32;;;;;;;4.17;100.00;92858.22;2107334;28;20020;-88
2021/11/14 04:50:56;;;;;;;9.38;8.48;;;;;;;4.11;100.00;92854.44;2105465;28;20547;-86
2021/11/14 04:51:57;;;;;;;9.38;8.55;;;;;;;4.16;100.00;92851.41;2110516;28;20081;-89